CheckWX is a tool to help pilots better visualize weather data.  It is not intended as a substitute for an official pre-flight weather briefing.

05:31:51 UTC

ETMN METAR
Nordholz Naval Airbase Airport
Cuxhaven, Germany
Current

12 mins ago

ETMN 200520Z 26009KT 7000 BKN050 06/04 Q1017 WHT BLU TEMPO GRN
Observed
Feb-20 @ 05:20 UTC
Wind
  • 260° at 9 KTS
Visibility
7,001 meters
Flight Rules
MVFR
Cloud Levels
  • Broken at 5,000' AGL
Temperature
C / 43°F
Dewpoint
C / 39°F
Humidity
87%
Altimeter
30.03" Hg
Pressure
1016.92 hPa
Previous

1 hour ago

ETMN 200420Z 25009KT 9999 BKN055 06/04 Q1017 BLU
Observed
Feb-20 @ 04:20 UTC
Wind
  • 250° at 9 KTS
Visibility
10,000+ meters
Flight Rules
VFR
Cloud Levels
  • Broken at 5,500' AGL
Temperature
C / 43°F
Dewpoint
C / 39°F
Humidity
87%
Altimeter
30.03" Hg
Pressure
1016.92 hPa
Previous

2 hours ago

ETMN 200320Z 25010KT 9999 FEW030 BKN055 06/04 Q1017 BLU
Observed
Feb-20 @ 03:20 UTC
Wind
  • 250° at 10 KTS
Visibility
10,000+ meters
Flight Rules
VFR
Cloud Levels
  • Few at 3,000' AGL
  • Broken at 5,500' AGL
Temperature
C / 43°F
Dewpoint
C / 39°F
Humidity
87%
Altimeter
30.03" Hg
Pressure
1016.92 hPa